Time;durP1;ratioP1;P1;durP2;ratioP2;P2;SDS_P1;SDS_P2;PMS_P1;PMS_P2;Temp;Humidity;BMP_temperature;BMP_pressure;BME280_temperature;BME280_humidity;BME280_pressure;Samples;Min_cycle;Max_cycle;Signal;HPM_P1;HPM_P2
2022/03/04 00:00:46;;;;;;;109.25;39.17;;;;;;;-1.01;77.57;99625.44;8434702;28;20100;-72
2022/03/04 00:04:47;;;;;;;122.47;41.80;;;;;;;-1.00;77.85;99637.63;8461781;28;20058;-72
2022/03/04 00:08:50;;;;;;;105.78;36.28;;;;;;;-1.01;77.45;99623.59;8446467;28;20134;-72
2022/03/04 00:12:53;;;;;;;109.22;37.20;;;;;;;-1.01;77.84;99630.72;8465098;28;20056;-72
2022/03/04 00:16:54;;;;;;;111.43;37.67;;;;;;;-1.00;78.06;99627.03;8465915;28;20058;-71
2022/03/04 00:20:55;;;;;;;106.85;35.03;;;;;;;-0.98;78.03;99627.63;8443739;28;20522;-72
2022/03/04 00:24:56;;;;;;;94.88;35.53;;;;;;;-0.97;78.00;99634.56;8448636;28;20135;-72
2022/03/04 00:28:58;;;;;;;108.60;36.47;;;;;;;-0.92;78.04;99630.22;8431678;28;20060;-72
2022/03/04 00:32:59;;;;;;;103.03;37.20;;;;;;;-0.86;77.95;99628.53;8431692;28;20085;-72
2022/03/04 00:37:00;;;;;;;103.43;36.90;;;;;;;-0.83;77.87;99628.06;8431325;28;20048;-72
2022/03/04 00:41:01;;;;;;;89.82;33.35;;;;;;;-0.82;77.84;99635.00;8430927;28;20477;-73
2022/03/04 00:45:02;;;;;;;97.25;34.92;;;;;;;-0.81;78.12;99636.63;8431733;28;20368;-72
2022/03/04 00:49:04;;;;;;;101.43;35.15;;;;;;;-0.80;78.42;99627.63;8430799;28;20101;-72
2022/03/04 00:53:05;;;;;;;90.47;33.05;;;;;;;-0.75;78.84;99619.00;8447205;28;20078;-71
2022/03/04 00:57:06;;;;;;;91.60;32.65;;;;;;;-0.73;78.75;99628.34;8433022;28;20147;-71
2022/03/04 01:01:08;;;;;;;96.63;33.80;;;;;;;-0.71;78.98;99626.28;8456821;28;20388;-71
2022/03/04 01:05:08;;;;;;;88.07;32.85;;;;;;;-0.71;79.52;99625.47;8462543;28;20278;-72
2022/03/04 01:09:09;;;;;;;98.43;35.00;;;;;;;-0.74;80.09;99626.72;8463454;28;20050;-72
2022/03/04 01:13:11;;;;;;;97.07;33.60;;;;;;;-0.71;80.15;99621.00;8463759;28;20071;-72
2022/03/04 01:17:12;;;;;;;94.20;33.40;;;;;;;-0.69;80.16;99621.59;8462407;28;20100;-72
2022/03/04 01:21:13;;;;;;;99.32;33.00;;;;;;;-0.65;81.16;99614.78;8429719;28;20149;-72
2022/03/04 01:25:14;;;;;;;92.85;32.25;;;;;;;-0.68;81.26;99609.91;8446254;28;20058;-72
2022/03/04 01:29:15;;;;;;;92.88;32.78;;;;;;;-0.70;81.61;99612.00;8449735;28;20484;-72
2022/03/04 01:33:16;;;;;;;100.95;34.25;;;;;;;-0.70;81.78;99622.63;8459969;28;20082;-71
2022/03/04 01:37:17;;;;;;;103.95;36.30;;;;;;;-0.69;81.79;99618.94;8429297;28;20040;-71
2022/03/04 01:41:18;;;;;;;94.30;34.10;;;;;;;-0.72;81.82;99608.75;8435408;28;20055;-71
2022/03/04 01:45:20;;;;;;;95.22;34.03;;;;;;;-0.68;81.74;99617.88;8442063;28;20044;-72
2022/03/04 01:49:21;;;;;;;96.43;34.65;;;;;;;-0.66;82.07;99613.16;8452606;28;20473;-72
2022/03/04 01:53:22;;;;;;;98.78;36.35;;;;;;;-0.67;81.95;99611.53;8448171;28;20039;-71
2022/03/04 01:57:23;;;;;;;103.20;34.90;;;;;;;-0.63;81.99;99623.31;8430465;28;20044;-72
2022/03/04 02:01:24;;;;;;;101.20;34.05;;;;;;;-0.63;82.27;99618.00;8451384;28;20058;-72
2022/03/04 02:05:25;;;;;;;105.40;35.50;;;;;;;-0.64;82.56;99616.41;8460985;28;20048;-72
2022/03/04 02:09:26;;;;;;;99.32;35.35;;;;;;;-0.66;82.48;99605.22;8445836;28;20097;-71
2022/03/04 02:13:27;;;;;;;105.28;37.13;;;;;;;-0.63;82.40;99612.72;8458074;28;20378;-72
2022/03/04 02:17:28;;;;;;;112.53;35.67;;;;;;;-0.63;83.00;99612.72;8458947;28;20052;-72
2022/03/04 02:21:31;;;;;;;101.93;34.20;;;;;;;-0.65;82.95;99609.50;8453960;28;20052;-73
2022/03/04 02:25:33;;;;;;;104.97;35.08;;;;;;;-0.65;83.16;99614.78;8457119;28;20051;-72
2022/03/04 02:29:36;;;;;;;103.82;35.03;;;;;;;-0.60;82.92;99612.28;8440884;28;20059;-72
2022/03/04 02:33:37;;;;;;;112.05;35.40;;;;;;;-0.60;82.92;99611.47;8448310;27;20134;-72
2022/03/04 02:37:39;;;;;;;107.40;36.28;;;;;;;-0.61;83.14;99620.44;8428056;28;20043;-72
2022/03/04 02:41:40;;;;;;;112.90;36.80;;;;;;;-0.65;83.59;99620.09;8428053;28;20052;-72
2022/03/04 02:45:41;;;;;;;101.03;35.40;;;;;;;-0.61;83.32;99637.19;8442085;28;20392;-72
2022/03/04 02:49:41;;;;;;;108.32;38.03;;;;;;;-0.59;82.99;99629.81;8459322;27;20075;-72
2022/03/04 02:53:42;;;;;;;100.57;35.20;;;;;;;-0.61;82.79;99631.88;8434455;28;20048;-71
2022/03/04 02:57:45;;;;;;;100.60;35.05;;;;;;;-0.61;83.29;99626.56;8444144;28;20076;-72
2022/03/04 03:01:46;;;;;;;105.25;36.22;;;;;;;-0.61;83.31;99626.56;8446226;28;20044;-72
2022/03/04 03:05:47;;;;;;;106.97;35.40;;;;;;;-0.60;83.20;99628.19;8428230;28;20051;-72
2022/03/04 03:09:49;;;;;;;102.15;34.72;;;;;;;-0.56;82.80;99628.56;8427252;28;20051;-72
2022/03/04 03:13:50;;;;;;;102.60;35.75;;;;;;;-0.57;83.15;99619.78;8454883;28;20051;-71
2022/03/04 03:17:51;;;;;;;106.47;37.58;;;;;;;-0.58;83.39;99618.16;8455287;28;20052;-72
2022/03/04 03:21:52;;;;;;;99.20;34.33;;;;;;;-0.58;82.83;99615.50;8429828;28;20056;-73
2022/03/04 03:25:53;;;;;;;110.18;36.38;;;;;;;-0.57;83.20;99622.44;8433752;28;20570;-72
2022/03/04 03:29:54;;;;;;;111.07;36.75;;;;;;;-0.60;83.82;99612.28;8436396;28;20130;-72
2022/03/04 03:33:55;;;;;;;95.97;33.78;;;;;;;-0.59;83.85;99616.56;8462580;28;20044;-73
2022/03/04 03:37:56;;;;;;;106.53;35.83;;;;;;;-0.54;83.38;99606.09;8448301;28;20050;-72
2022/03/04 03:41:57;;;;;;;118.93;37.88;;;;;;;-0.55;84.18;99609.75;8435659;28;20052;-72
2022/03/04 03:45:58;;;;;;;110.80;36.50;;;;;;;-0.55;84.29;99615.06;8433434;28;20055;-71
2022/03/04 03:49:59;;;;;;;117.18;36.17;;;;;;;-0.59;84.44;99608.59;8443583;27;20047;-73
2022/03/04 03:54:00;;;;;;;104.70;36.20;;;;;;;-0.61;84.93;99605.34;8448541;28;20055;-73
2022/03/04 03:58:01;;;;;;;103.60;35.63;;;;;;;-0.64;85.08;99611.13;8428361;28;20044;-72
2022/03/04 04:02:02;;;;;;;104.78;36.63;;;;;;;-0.65;85.09;99604.19;8465079;28;20070;-72
2022/03/04 04:06:03;;;;;;;105.82;36.00;;;;;;;-0.62;85.40;99614.34;8441615;28;20052;-72
2022/03/04 04:10:05;;;;;;;104.13;35.38;;;;;;;-0.61;84.91;99615.97;8433644;28;20060;-72
2022/03/04 04:14:07;;;;;;;103.38;34.85;;;;;;;-0.61;85.40;99615.97;8434756;28;20761;-72
2022/03/04 04:18:08;;;;;;;104.97;36.08;;;;;;;-0.65;85.30;99622.75;8466975;27;20047;-72
2022/03/04 04:22:09;;;;;;;106.88;34.92;;;;;;;-0.65;85.71;99617.44;8436503;28;20052;-72
2022/03/04 04:26:10;;;;;;;111.88;39.22;;;;;;;-0.63;85.89;99617.19;8442699;28;20502;-72
2022/03/04 04:30:12;;;;;;;103.40;36.90;;;;;;;-0.63;85.96;99615.38;8439079;28;20056;-72
2022/03/04 04:34:12;;;;;;;111.35;36.67;;;;;;;-0.60;85.99;99617.59;8443587;28;20059;-71
2022/03/04 04:38:14;;;;;;;96.45;34.83;;;;;;;-0.58;86.02;99620.81;8429905;28;20513;-72
2022/03/04 04:42:15;;;;;;;117.78;36.40;;;;;;;-0.57;85.84;99611.81;8437386;28;20048;-72
2022/03/04 04:46:16;;;;;;;114.82;37.38;;;;;;;-0.56;85.60;99610.78;8436777;28;20044;-71
2022/03/04 04:50:17;;;;;;;108.18;37.63;;;;;;;-0.58;86.04;99612.84;8445332;27;20130;-71
2022/03/04 04:54:18;;;;;;;104.15;36.38;;;;;;;-0.56;85.98;99613.44;8422147;27;20048;-71
2022/03/04 04:58:19;;;;;;;105.85;36.78;;;;;;;-0.57;86.23;99614.47;8434398;28;20043;-72
2022/03/04 05:02:20;;;;;;;107.15;35.17;;;;;;;-0.57;86.03;99614.47;8442142;28;20050;-72
2022/03/04 05:06:21;;;;;;;103.65;35.05;;;;;;;-0.58;86.07;99614.72;8463443;28;20702;-72
2022/03/04 05:10:22;;;;;;;108.63;36.67;;;;;;;-0.57;86.04;99617.13;8462044;28;20518;-71
2022/03/04 05:14:23;;;;;;;107.40;37.25;;;;;;;-0.56;86.22;99624.06;8464286;28;20044;-71
2022/03/04 05:18:24;;;;;;;113.93;38.40;;;;;;;-0.54;86.17;99621.19;8464035;28;20407;-72
2022/03/04 05:22:24;;;;;;;107.68;35.22;;;;;;;-0.51;85.81;99618.88;8432213;28;20048;-72
2022/03/04 05:26:34;;;;;;;105.38;36.78;;;;;;;-0.47;86.22;99622.69;8463673;27;20047;-73
2022/03/04 05:30:35;;;;;;;104.63;36.47;;;;;;;-0.47;86.29;99621.88;8461505;28;20048;-74
2022/03/04 05:34:37;;;;;;;115.57;40.20;;;;;;;-0.45;86.11;99625.97;8443220;28;20055;-73
2022/03/04 05:38:38;;;;;;;112.05;38.05;;;;;;;-0.46;85.87;99634.94;8428351;28;20052;-73
2022/03/04 05:42:39;;;;;;;102.95;36.58;;;;;;;-0.47;86.24;99622.69;8429594;28;20059;-73
2022/03/04 05:46:40;;;;;;;109.03;36.42;;;;;;;-0.46;86.23;99634.94;8429435;28;20152;-72
2022/03/04 05:50:41;;;;;;;110.30;38.67;;;;;;;-0.46;86.52;99645.56;8429328;28;20055;-72
2022/03/04 05:54:41;;;;;;;108.60;37.83;;;;;;;-0.42;86.07;99646.72;8458974;28;20134;-73
2022/03/04 05:58:42;;;;;;;120.30;37.40;;;;;;;-0.40;86.55;99648.34;8429892;28;20051;-72
2022/03/04 06:02:43;;;;;;;114.70;39.47;;;;;;;-0.40;86.60;99656.31;8437091;28;20139;-73
2022/03/04 06:06:44;;;;;;;110.95;38.08;;;;;;;-0.35;86.64;99651.13;8449622;28;20058;-73
2022/03/04 06:10:45;;;;;;;118.22;39.72;;;;;;;-0.34;86.36;99660.72;8462287;28;20039;-73
2022/03/04 06:14:46;;;;;;;115.57;39.90;;;;;;;-0.29;86.49;99660.84;8462455;28;20123;-72
2022/03/04 06:18:47;;;;;;;116.05;39.60;;;;;;;-0.23;85.94;99665.28;8461798;28;20426;-72
2022/03/04 06:22:48;;;;;;;117.35;38.33;;;;;;;-0.23;86.68;99675.88;8461627;28;20058;-73
2022/03/04 06:26:49;;;;;;;122.88;40.97;;;;;;;-0.26;86.97;99676.31;8442527;28;20459;-72
2022/03/04 06:30:50;;;;;;;117.30;38.60;;;;;;;-0.20;86.95;99686.03;8459394;28;20055;-73
2022/03/04 06:34:51;;;;;;;130.43;40.65;;;;;;;-0.13;86.54;99692.09;8443003;28;20047;-73
2022/03/04 06:38:52;;;;;;;117.25;41.40;;;;;;;-0.03;86.47;99687.03;8425093;28;20043;-73
2022/03/04 06:42:53;;;;;;;121.68;41.78;;;;;;;0.02;86.22;99684.53;8461697;28;20134;-73
2022/03/04 06:46:54;;;;;;;115.85;40.38;;;;;;;0.06;86.21;99685.69;8442059;28;20043;-73
2022/03/04 06:50:55;;;;;;;111.38;41.10;;;;;;;0.11;86.18;99691.13;8461042;28;20574;-72
2022/03/04 06:54:56;;;;;;;118.00;41.33;;;;;;;0.19;85.44;99685.50;8461051;28;20054;-73
2022/03/04 06:58:58;;;;;;;109.43;39.58;;;;;;;0.25;85.40;99684.59;8441685;28;20055;-72
2022/03/04 07:02:59;;;;;;;127.63;42.28;;;;;;;0.26;86.03;99691.53;8460815;28;20055;-73
2022/03/04 07:06:59;;;;;;;116.85;39.95;;;;;;;0.28;86.17;99689.44;8442052;28;20074;-72
2022/03/04 07:11:01;;;;;;;136.85;43.90;;;;;;;0.26;86.53;99696.84;8460829;28;20077;-73
2022/03/04 07:15:02;;;;;;;122.18;40.72;;;;;;;0.19;87.15;99701.44;8441506;28;20123;-72
2022/03/04 07:19:03;;;;;;;126.05;41.55;;;;;;;0.30;87.10;99698.00;8460782;28;20043;-72
2022/03/04 07:23:05;;;;;;;123.28;43.83;;;;;;;0.38;86.48;99700.31;8475476;28;20457;-73
2022/03/04 07:27:06;;;;;;;124.82;42.55;;;;;;;0.41;86.22;99705.19;8458412;28;20051;-73
2022/03/04 07:31:07;;;;;;;136.32;44.08;;;;;;;0.55;86.05;99704.97;8460342;28;20123;-73
2022/03/04 07:35:10;;;;;;;121.50;42.53;;;;;;;0.61;86.25;99706.72;8460347;28;20066;-72
2022/03/04 07:39:11;;;;;;;121.50;42.47;;;;;;;0.71;85.57;99704.31;8460221;28;20560;-71
2022/03/04 07:43:12;;;;;;;127.82;44.25;;;;;;;0.71;85.99;99699.00;8460427;28;20056;-71
2022/03/04 07:47:13;;;;;;;120.10;42.30;;;;;;;0.80;85.45;99716.22;8441044;28;20052;-72
2022/03/04 07:51:14;;;;;;;123.28;42.80;;;;;;;0.84;85.44;99709.41;8459973;28;20048;-71
2022/03/04 07:55:15;;;;;;;118.35;43.65;;;;;;;0.88;85.23;99715.88;8460679;28;20051;-71
2022/03/04 07:59:16;;;;;;;124.90;44.33;;;;;;;0.97;85.20;99719.81;8459737;28;20048;-71
2022/03/04 08:03:17;;;;;;;119.70;43.65;;;;;;;1.06;85.08;99712.28;8440855;28;20116;-71
2022/03/04 08:07:18;;;;;;;113.93;43.22;;;;;;;1.07;84.69;99720.03;8460319;28;20058;-72
2022/03/04 08:11:19;;;;;;;119.18;42.15;;;;;;;1.20;84.67;99725.13;8466335;28;20051;-71
2022/03/04 08:15:20;;;;;;;117.70;41.47;;;;;;;1.28;84.15;99738.06;8465748;28;20116;-71
2022/03/04 08:19:21;;;;;;;124.20;40.05;;;;;;;1.37;84.06;99724.44;8463771;28;20072;-70
2022/03/04 08:23:22;;;;;;;116.35;42.78;;;;;;;1.52;83.69;99727.41;8431464;28;20052;-71
2022/03/04 08:27:23;;;;;;;113.05;41.25;;;;;;;1.57;83.40;99740.81;8432122;28;20479;-71
2022/03/04 08:31:24;;;;;;;107.13;38.40;;;;;;;1.47;83.53;99740.59;8431533;28;20048;-71
2022/03/04 08:35:25;;;;;;;108.88;41.38;;;;;;;1.63;83.25;99729.22;8431544;28;20060;-71
2022/03/04 08:39:26;;;;;;;105.22;37.15;;;;;;;1.79;82.84;99730.34;8431626;28;20052;-71
2022/03/04 08:43:27;;;;;;;111.13;39.85;;;;;;;1.83;82.67;99729.63;8432485;28;20408;-72
2022/03/04 08:47:29;;;;;;;102.35;38.80;;;;;;;1.97;82.12;99741.63;8432504;28;20048;-72
2022/03/04 08:51:29;;;;;;;111.97;38.78;;;;;;;2.02;82.22;99739.06;8435630;28;20035;-72
2022/03/04 08:55:30;;;;;;;111.18;38.13;;;;;;;2.13;81.76;99738.22;8459590;27;20043;-72
2022/03/04 08:59:32;;;;;;;108.65;36.92;;;;;;;2.21;81.74;99741.53;8411934;28;20078;-71
2022/03/04 09:03:33;;;;;;;101.38;37.10;;;;;;;2.38;81.18;99737.84;8430982;28;20044;-71
2022/03/04 09:07:34;;;;;;;109.13;36.75;;;;;;;2.48;80.84;99753.25;8462991;27;20046;-71
2022/03/04 09:11:36;;;;;;;95.75;36.05;;;;;;;2.53;80.60;99750.66;8430658;28;20043;-71
2022/03/04 09:15:37;;;;;;;89.47;36.70;;;;;;;2.42;80.53;99754.19;8463210;27;20052;-71
2022/03/04 09:19:39;;;;;;;92.10;35.20;;;;;;;2.34;80.83;99758.03;8427581;28;20044;-72
2022/03/04 09:23:39;;;;;;;97.88;37.25;;;;;;;2.27;81.15;99756.59;8430336;28;20060;-72
2022/03/04 09:27:42;;;;;;;89.13;35.92;;;;;;;2.39;81.05;99765.31;8430181;28;20045;-72
2022/03/04 09:31:43;;;;;;;95.13;36.63;;;;;;;2.48;80.74;99764.72;8428777;28;20055;-72
2022/03/04 09:35:44;;;;;;;89.90;36.67;;;;;;;2.60;80.56;99761.97;8430120;28;20055;-72
2022/03/04 09:39:45;;;;;;;91.78;33.92;;;;;;;2.55;80.36;99762.69;8429642;28;20131;-71
2022/03/04 09:43:46;;;;;;;88.45;34.38;;;;;;;2.63;80.45;99766.84;8427615;28;20127;-71
2022/03/04 09:47:47;;;;;;;82.95;32.33;;;;;;;2.78;80.00;99769.75;8429855;28;20048;-72
2022/03/04 09:51:48;;;;;;;71.15;30.10;;;;;;;2.81;79.82;99769.25;8429415;28;20416;-71
2022/03/04 09:55:49;;;;;;;72.65;28.95;;;;;;;2.81;79.50;99769.25;8436709;28;20048;-72
2022/03/04 09:59:51;;;;;;;71.63;28.67;;;;;;;2.84;79.53;99768.78;8456840;28;20043;-71
2022/03/04 10:03:54;;;;;;;53.50;23.90;;;;;;;2.76;79.25;99781.69;8461029;28;20181;-72
2022/03/04 10:07:55;;;;;;;55.72;22.48;;;;;;;2.74;79.40;99773.97;8460488;28;20066;-73
2022/03/04 10:12:02;;;;;;;45.47;19.25;;;;;;;2.88;78.95;99775.25;8444478;28;20094;-73
2022/03/04 10:16:04;;;;;;;49.70;19.87;;;;;;;2.91;78.52;99782.75;8426752;28;20036;-71
2022/03/04 10:20:07;;;;;;;45.60;18.35;;;;;;;2.96;77.83;99787.38;8408448;28;20047;-72
2022/03/04 10:24:09;;;;;;;41.47;16.77;;;;;;;2.96;77.44;99777.50;8427780;28;20047;-72
2022/03/04 10:28:10;;;;;;;40.65;17.17;;;;;;;2.95;77.17;99781.25;8427744;28;20093;-72
2022/03/04 10:32:26;;;;;;;40.53;17.90;;;;;;;2.89;77.14;99787.53;8427455;28;20067;-72
2022/03/04 10:36:27;;;;;;;47.33;19.70;;;;;;;2.85;76.82;99781.09;8428286;28;20573;-71
2022/03/04 10:40:30;;;;;;;40.25;17.33;;;;;;;2.83;76.66;99783.16;8426762;28;20048;-71
2022/03/04 10:44:31;;;;;;;38.47;17.63;;;;;;;2.79;76.78;99776.72;8428265;28;20102;-71
2022/03/04 10:48:32;;;;;;;43.10;18.52;;;;;;;2.78;76.43;99780.41;8427887;28;20048;-71
2022/03/04 10:52:33;;;;;;;35.55;17.15;;;;;;;2.85;76.06;99786.41;8441785;28;20123;-72
2022/03/04 10:56:54;;;;;;;36.10;16.27;;;;;;;2.97;75.81;99789.78;8461701;28;20084;-72
2022/03/04 11:00:57;;;;;;;31.05;15.88;;;;;;;3.07;75.13;99783.03;8493864;27;20522;-71
2022/03/04 11:04:58;;;;;;;28.25;13.07;;;;;;;3.04;74.93;99772.81;8460918;28;20044;-71
2022/03/04 11:08:59;;;;;;;29.55;13.57;;;;;;;3.17;74.96;99783.19;8460869;28;20075;-71
2022/03/04 11:13:04;;;;;;;29.15;14.27;;;;;;;3.27;74.84;99788.66;8459499;28;20052;-72
2022/03/04 11:17:05;;;;;;;28.15;13.93;;;;;;;3.29;74.49;99791.88;8460563;28;20058;-71
2022/03/04 11:21:06;;;;;;;29.95;14.32;;;;;;;3.43;74.57;99787.84;8458710;28;20065;-72
2022/03/04 11:25:12;;;;;;;31.42;14.60;;;;;;;3.42;73.74;99785.41;8460779;28;20047;-71
2022/03/04 11:29:36;;;;;;;33.60;14.98;;;;;;;3.44;73.51;99786.75;8460558;28;20055;-71
2022/03/04 11:33:41;;;;;;;33.80;15.35;;;;;;;3.37;73.54;99778.13;8460456;28;20051;-71
2022/03/04 11:37:50;;;;;;;68.60;24.90;;;;;;;3.47;73.71;99783.63;8493374;27;20051;-72
2022/03/04 11:41:53;;;;;;;56.17;24.90;;;;;;;3.65;72.96;99783.31;8461618;28;20460;-71
2022/03/04 11:46:02;;;;;;;32.33;15.93;;;;;;;3.60;72.73;99783.25;8466989;28;20039;-71
2022/03/04 11:50:24;;;;;;;37.17;16.13;;;;;;;3.41;73.20;99779.25;8467253;28;20448;-72
2022/03/04 11:54:26;;;;;;;33.47;16.20;;;;;;;3.28;73.31;99776.91;8467196;28;20043;-72
2022/03/04 11:58:27;;;;;;;35.53;16.58;;;;;;;3.08;73.95;99779.28;8466515;28;20054;-72
2022/03/04 12:02:31;;;;;;;37.65;17.92;;;;;;;3.22;74.31;99783.25;8467016;28;20544;-71
2022/03/04 12:06:32;;;;;;;31.48;15.52;;;;;;;3.38;73.54;99779.75;8447378;28;20388;-71
2022/03/04 12:10:40;;;;;;;37.40;16.02;;;;;;;3.54;73.56;99784.25;8466106;27;20100;-71
2022/03/04 12:15:16;;;;;;;33.35;14.98;;;;;;;3.42;73.19;99780.06;8465812;28;20054;-72
2022/03/04 12:19:30;;;;;;;32.63;16.27;;;;;;;3.33;73.67;99787.69;8427940;28;20071;-71
2022/03/04 12:23:46;;;;;;;31.60;14.73;;;;;;;3.21;74.17;99795.78;8411184;28;20105;-71
2022/03/04 12:27:54;;;;;;;38.88;15.27;;;;;;;3.16;74.19;99798.38;8427848;28;20507;-72
2022/03/04 12:31:55;;;;;;;34.23;14.73;;;;;;;3.10;74.31;99798.53;8428057;28;20060;-72
2022/03/04 12:35:57;;;;;;;33.28;14.43;;;;;;;3.11;74.48;99800.16;8394087;28;20044;-72
2022/03/04 12:39:58;;;;;;;32.55;15.32;;;;;;;3.20;74.38;99804.03;8427640;28;20048;-72
2022/03/04 12:44:05;;;;;;;29.63;14.63;;;;;;;3.18;74.27;99806.13;8377154;28;20051;-72
2022/03/04 12:48:06;;;;;;;31.67;13.88;;;;;;;3.10;74.72;99798.53;8393782;28;20575;-71
2022/03/04 12:52:07;;;;;;;30.58;14.02;;;;;;;3.04;74.73;99804.84;8427187;28;20570;-72
2022/03/04 12:56:08;;;;;;;26.92;13.30;;;;;;;2.98;74.94;99807.44;8452199;28;20040;-72
2022/03/04 13:00:10;;;;;;;178.40;57.83;;;;;;;3.00;75.06;99809.06;8464620;27;20043;-71
2022/03/04 13:04:12;;;;;;;31.85;14.45;;;;;;;2.86;75.41;99805.88;8464577;28;20050;-71
2022/03/04 13:08:14;;;;;;;30.05;14.27;;;;;;;2.73;76.25;99799.00;8464884;28;20138;-71
2022/03/04 13:12:20;;;;;;;27.92;14.23;;;;;;;2.71;76.30;99801.09;8464271;28;20047;-71
2022/03/04 13:16:24;;;;;;;29.38;15.90;;;;;;;2.78;76.66;99804.44;8464190;28;20559;-71
2022/03/04 13:20:26;;;;;;;27.88;14.85;;;;;;;2.71;76.97;99801.09;8464116;28;20495;-71
2022/03/04 13:24:29;;;;;;;31.23;16.45;;;;;;;2.66;76.98;99803.66;8497130;27;20560;-71
2022/03/04 13:29:07;;;;;;;32.53;15.02;;;;;;;2.58;77.62;99806.75;8464416;28;20550;-71
2022/03/04 13:33:08;;;;;;;25.80;13.75;;;;;;;2.57;77.88;99810.44;8463548;28;20489;-70
2022/03/04 13:37:17;;;;;;;32.72;14.38;;;;;;;2.55;77.89;99817.88;8463949;28;20071;-71
2022/03/04 13:41:23;;;;;;;34.00;17.55;;;;;;;2.46;78.18;99816.63;8463925;28;20513;-71
2022/03/04 13:45:39;;;;;;;32.10;15.00;;;;;;;2.50;78.13;99820.44;8444243;28;20047;-70
2022/03/04 13:49:44;;;;;;;35.58;15.63;;;;;;;2.50;78.25;99825.78;8463435;28;20078;-71
2022/03/04 13:53:56;;;;;;;30.58;15.63;;;;;;;2.47;78.43;99815.59;8462565;28;20060;-70
2022/03/04 13:58:01;;;;;;;28.88;15.70;;;;;;;2.55;78.34;99817.88;8458031;28;20063;-71
2022/03/04 14:02:05;;;;;;;38.50;14.43;;;;;;;2.54;78.81;99816.25;8429366;28;20039;-71
2022/03/04 14:06:08;;;;;;;31.90;13.95;;;;;;;2.45;79.29;99817.69;8421676;28;20040;-71
2022/03/04 14:10:11;;;;;;;32.97;14.38;;;;;;;2.46;79.30;99813.97;8428969;28;20396;-70
2022/03/04 14:14:15;;;;;;;30.88;15.05;;;;;;;2.43;79.53;99809.13;8426154;28;20048;-70
2022/03/04 14:18:21;;;;;;;32.72;15.15;;;;;;;2.44;80.48;99808.06;8428693;28;20059;-71
2022/03/04 14:22:22;;;;;;;29.73;15.02;;;;;;;2.44;80.02;99808.06;8428104;28;20248;-70
2022/03/04 14:26:23;;;;;;;31.05;14.02;;;;;;;2.45;80.13;99802.50;8428340;28;20497;-71
2022/03/04 14:30:27;;;;;;;42.80;18.27;;;;;;;2.45;80.41;99812.34;8427985;28;20059;-70
2022/03/04 14:34:30;;;;;;;27.92;14.57;;;;;;;2.47;81.16;99810.25;8428366;28;20113;-70
2022/03/04 14:38:31;;;;;;;32.38;14.10;;;;;;;2.37;81.80;99815.41;8427730;28;20419;-71
2022/03/04 14:42:33;;;;;;;35.13;14.85;;;;;;;2.35;82.23;99807.66;8427913;28;20059;-71
2022/03/04 14:46:34;;;;;;;49.90;20.67;;;;;;;2.37;82.32;99815.41;8446037;28;20051;-70
2022/03/04 14:50:38;;;;;;;137.63;51.50;;;;;;;2.37;82.20;99812.75;8442833;28;20130;-70
2022/03/04 14:54:39;;;;;;;35.13;14.27;;;;;;;2.36;82.09;99819.13;8461286;28;20043;-71
2022/03/04 14:58:40;;;;;;;31.33;14.20;;;;;;;2.26;82.32;99819.75;8476287;27;20145;-71
2022/03/04 15:02:45;;;;;;;32.85;14.52;;;;;;;2.26;82.81;99818.94;8461281;28;20051;-71
2022/03/04 15:06:46;;;;;;;34.33;17.30;;;;;;;2.34;82.62;99826.53;8459217;28;20542;-71
2022/03/04 15:10:47;;;;;;;31.67;14.85;;;;;;;2.37;82.30;99826.06;8461072;28;20058;-71
2022/03/04 15:14:48;;;;;;;27.55;14.32;;;;;;;2.34;82.92;99837.19;8441984;28;20044;-71
2022/03/04 15:18:50;;;;;;;35.00;15.30;;;;;;;2.34;82.77;99831.88;8465742;28;20044;-71
2022/03/04 15:22:51;;;;;;;52.10;21.23;;;;;;;2.30;82.69;99830.72;8467897;28;20059;-71
2022/03/04 15:26:57;;;;;;;33.03;13.95;;;;;;;2.33;82.92;99830.25;8468430;28;20100;-71
2022/03/04 15:30:59;;;;;;;30.40;15.18;;;;;;;2.37;82.67;99837.53;8500830;27;20097;-70
2022/03/04 15:35:00;;;;;;;32.90;14.35;;;;;;;2.38;82.77;99830.38;8467696;28;20047;-71
2022/03/04 15:39:01;;;;;;;31.30;15.10;;;;;;;2.45;82.93;99836.34;8467456;28;20047;-71
2022/03/04 15:43:02;;;;;;;32.83;15.35;;;;;;;2.42;83.04;99839.50;8467538;28;20438;-71
2022/03/04 15:47:04;;;;;;;62.05;31.35;;;;;;;2.42;82.95;99844.81;8467435;28;20570;-71
2022/03/04 15:51:05;;;;;;;33.25;13.73;;;;;;;2.41;82.86;99843.19;8466931;28;20044;-71
2022/03/04 15:55:08;;;;;;;30.02;13.70;;;;;;;2.40;82.99;99841.56;8444609;28;20047;-71
2022/03/04 15:59:09;;;;;;;28.42;14.45;;;;;;;2.38;83.38;99849.03;8456189;28;20555;-72
2022/03/04 16:03:11;;;;;;;33.20;16.33;;;;;;;2.34;83.47;99847.84;8441628;28;20450;-71
2022/03/04 16:07:11;;;;;;;36.30;18.58;;;;;;;2.28;83.74;99848.78;8432752;28;20089;-72
2022/03/04 16:11:13;;;;;;;33.75;14.57;;;;;;;2.28;83.65;99848.78;8433544;28;20073;-72
2022/03/04 16:15:13;;;;;;;30.98;13.52;;;;;;;2.24;83.64;99859.13;8466718;28;20495;-71
2022/03/04 16:19:15;;;;;;;32.92;15.07;;;;;;;2.23;83.99;99856.69;8466796;28;20548;-72
2022/03/04 16:23:16;;;;;;;38.28;14.68;;;;;;;2.23;83.78;99856.69;8447107;28;20067;-72
2022/03/04 16:27:17;;;;;;;33.28;14.98;;;;;;;2.16;83.90;99861.38;8436816;28;20077;-71
2022/03/04 16:31:18;;;;;;;34.45;15.18;;;;;;;2.13;84.47;99852.78;8459489;28;20040;-71
2022/03/04 16:35:19;;;;;;;31.15;15.43;;;;;;;2.03;84.36;99857.91;8464054;28;20074;-72
2022/03/04 16:39:22;;;;;;;35.63;15.50;;;;;;;2.00;84.60;99853.06;8463011;28;20047;-72
2022/03/04 16:43:23;;;;;;;34.55;15.95;;;;;;;1.91;84.77;99865.09;8465019;28;20044;-71
2022/03/04 16:47:24;;;;;;;34.65;15.43;;;;;;;1.84;85.05;99872.41;8463048;28;20063;-71
2022/03/04 16:51:25;;;;;;;31.88;15.77;;;;;;;1.84;85.23;99869.75;8440796;28;20131;-72
2022/03/04 16:55:26;;;;;;;32.90;14.65;;;;;;;1.87;85.05;99874.59;8465704;28;20043;-71
2022/03/04 16:59:27;;;;;;;35.53;16.33;;;;;;;1.85;85.34;99887.31;8480923;27;20100;-72
2022/03/04 17:03:28;;;;;;;33.08;16.02;;;;;;;1.83;85.28;99878.78;8465894;28;20054;-72
2022/03/04 17:07:29;;;;;;;34.10;16.88;;;;;;;1.78;85.48;99880.53;8400955;28;20056;-72
2022/03/04 17:11:31;;;;;;;38.42;17.77;;;;;;;1.74;85.98;99869.53;8432440;28;20048;-72
2022/03/04 17:15:33;;;;;;;35.05;15.38;;;;;;;1.69;86.51;99877.41;8402256;28;20071;-72
2022/03/04 17:19:34;;;;;;;37.65;17.33;;;;;;;1.67;86.20;99879.47;8431758;28;20043;-72
2022/03/04 17:23:36;;;;;;;38.88;16.83;;;;;;;1.63;86.77;99878.34;8430704;28;20058;-72
2022/03/04 17:27:37;;;;;;;39.30;15.88;;;;;;;1.58;87.12;99870.22;8429646;28;20055;-72
2022/03/04 17:31:38;;;;;;;41.03;18.13;;;;;;;1.52;87.10;99871.16;8479884;27;20055;-73
2022/03/04 17:35:42;;;;;;;44.40;17.83;;;;;;;1.50;87.09;99873.22;8455154;28;20048;-72
2022/03/04 17:39:43;;;;;;;39.45;17.90;;;;;;;1.47;86.93;99884.34;8488156;27;20035;-73
2022/03/04 17:43:44;;;;;;;45.33;18.92;;;;;;;1.44;87.29;99884.78;8461878;27;20134;-73
2022/03/04 17:47:45;;;;;;;36.78;16.75;;;;;;;1.45;87.02;99891.72;8430475;28;20506;-73
2022/03/04 17:51:46;;;;;;;49.60;18.63;;;;;;;1.56;87.22;99885.63;8443932;28;20048;-72
2022/03/04 17:55:47;;;;;;;41.65;17.15;;;;;;;1.48;87.53;99891.28;8447208;28;20044;-72
2022/03/04 17:59:48;;;;;;;37.35;17.60;;;;;;;1.45;87.55;99891.72;8464193;28;20112;-72
2022/03/04 18:03:49;;;;;;;42.00;18.25;;;;;;;1.50;87.54;99899.84;8470132;27;20091;-72
2022/03/04 18:07:51;;;;;;;45.83;18.90;;;;;;;1.46;87.86;99898.69;8473722;27;20035;-71
2022/03/04 18:11:54;;;;;;;43.78;19.52;;;;;;;1.51;87.94;99901.47;8463661;27;20051;-73
2022/03/04 18:15:55;;;;;;;37.75;17.98;;;;;;;1.53;87.65;99899.41;8460687;27;20142;-72
2022/03/04 18:19:56;;;;;;;48.78;19.85;;;;;;;1.55;87.71;99907.94;8471100;27;20051;-73
2022/03/04 18:23:57;;;;;;;41.45;18.75;;;;;;;1.55;87.48;99907.94;8484268;27;20492;-73
2022/03/04 18:27:58;;;;;;;54.65;20.83;;;;;;;1.54;87.62;99908.97;8462911;28;20048;-73
2022/03/04 18:31:59;;;;;;;54.65;21.63;;;;;;;1.58;87.43;99913.63;8462811;28;20043;-73
2022/03/04 18:36:01;;;;;;;55.25;24.25;;;;;;;1.57;87.34;99921.84;8506602;27;20067;-72